Terminal Aerodrome Forecast
Issued by NWS Charleston, WV

Current Version | Previous Version | Text Only | Print | Product List | Glossary Off
Versions: 1 2 3 4 5 6 7 8 9 10 11 12 13 14 15 16 17 18 19

355
FTUS41 KRLX 011130
TAFPKB
TAF
KPKB 011130Z 0112/0212 20005KT P6SM BKN008 OVC015
     FM011400 20006KT P6SM BKN040
     FM012100 25010G25KT P6SM -TSRA BKN050CB
     FM020400 VRB03KT P6SM -SHRA VCTS OVC045CB
     FM020600 19005KT P6SM VCTS OVC025CB
     FM020900 19005KT P6SM OVC020=

USA.gov is the U.S. government's official web portal to all federal, state and local government web resources and services.